Aviation Digital Data Service (ADDS)

Output produced by METARs form (2120 UTC 06 December 2019)
found at http://www.aviationweather.gov/metar/data/
 
Forecast for: NWWW (LA TONTOUTA NLLE, WS)
Text: TAF NWWW 061700Z 0618/0718 VRB02KT 9999 FEW050 SCT064
Forecast period: 1800 to 2200 UTC 06 December 2019
Forecast type: FROM: standard forecast or significant change
Winds: variable direction winds at 2 MPH (2 knots; 1.0 m/s)
Visibility: 6 or more miles 10+ km)
Ceiling: at least 12,000 feet AGL
Clouds: few clouds at 5000 feet AGL
scattered clouds at 6400 feet AGL
Weather: no significant weather forecast for this period
Text: BECMG 0622/0624 16014KT
Forecast period: 2200 UTC 06 December 2019 to 1800 UTC 07 December 2019
Forecast type: BECOMING: Conditions expected to become as follows by 0000 UTC 07 December 2019
Winds: from the SSE (160 degrees) at 16 MPH (14 knots; 7.2 m/s)
Visibility: 6 or more miles 10+ km)
Ceiling: at least 12,000 feet AGL
Clouds: few clouds at 5000 feet AGL
scattered clouds at 6400 feet AGL
Weather: no significant weather forecast for this period
Text: TEMPO 0700/0706 4000 SHRA FEW020TCU
Forecast period: 0000 to 0600 UTC 07 December 2019
Forecast type: TEMPORARY: The following changes expected for less than half the time period
Visibility: 2.49 miles (4.01 km)
Ceiling: at least 12,000 feet AGL
Clouds: few clouds at 2000 feet AGL
Weather: SHRA  (rain showers)